createdAt,value
2018-12-01T00:00:28.016Z,9.30
2018-12-01T00:02:56.302Z,9.20
2018-12-01T00:05:24.415Z,9.20
2018-12-01T00:07:52.702Z,9.20
2018-12-01T00:10:21.747Z,9.20
2018-12-01T00:12:49.866Z,9.20
2018-12-01T00:15:23.295Z,9.20
2018-12-01T00:17:51.672Z,9.20
2018-12-01T00:20:22.195Z,9.20
2018-12-01T00:22:50.324Z,9.20
2018-12-01T00:25:18.502Z,9.20
2018-12-01T00:27:46.728Z,9.30
2018-12-01T00:30:16.806Z,9.30
2018-12-01T00:32:45.832Z,9.30
2018-12-01T00:35:14.112Z,9.30
2018-12-01T00:37:42.243Z,9.30
2018-12-01T00:40:13.333Z,9.20
2018-12-01T00:42:41.531Z,9.30
2018-12-01T00:45:11.635Z,9.30
2018-12-01T00:47:39.782Z,9.20
2018-12-01T00:50:11.859Z,9.20
2018-12-01T00:52:40.036Z,9.10
2018-12-01T00:55:11.693Z,9.10
2018-12-01T00:57:39.848Z,9.10
2018-12-01T01:00:13.311Z,9.10
2018-12-01T01:02:41.707Z,9.20
2018-12-01T01:05:09.812Z,9.20
2018-12-01T01:07:37.928Z,9.20
2018-12-01T01:10:08.942Z,9.10
2018-12-01T01:12:37.075Z,9.00
2018-12-01T01:15:07.536Z,9.00
2018-12-01T01:17:36.197Z,9.00
2018-12-01T01:20:07.629Z,9.00
2018-12-01T01:22:35.743Z,9.00
2018-12-01T01:25:03.908Z,8.90
2018-12-01T01:27:32.047Z,8.90
2018-12-01T01:30:00.719Z,8.90
2018-12-01T01:32:28.952Z,8.90
2018-12-01T01:34:57.068Z,8.90
2018-12-01T01:37:25.335Z,8.90
2018-12-01T01:39:53.688Z,9.00
2018-12-01T01:42:21.803Z,9.00
2018-12-01T01:44:49.949Z,9.00
2018-12-01T01:47:18.149Z,9.00
2018-12-01T01:49:46.335Z,9.00
2018-12-01T01:52:14.599Z,9.00
2018-12-01T01:54:42.727Z,9.00
2018-12-01T01:57:10.876Z,9.00
2018-12-01T01:59:39.050Z,9.00
2018-12-01T02:02:07.272Z,9.00
2018-12-01T02:04:35.409Z,9.00
2018-12-01T02:07:04.586Z,9.00
2018-12-01T02:09:32.751Z,9.00
2018-12-01T02:12:00.887Z,9.00
2018-12-01T02:14:29.020Z,9.00
2018-12-01T02:16:57.167Z,8.90
2018-12-01T02:19:25.406Z,8.90
2018-12-01T02:21:53.563Z,8.90
2018-12-01T02:24:21.711Z,8.90
2018-12-01T02:26:49.937Z,8.90
2018-12-01T02:29:18.071Z,8.90
2018-12-01T02:31:46.254Z,8.90
2018-12-01T02:34:14.425Z,8.80
2018-12-01T02:36:42.567Z,8.80
2018-12-01T02:39:10.696Z,8.80
2018-12-01T02:41:38.867Z,8.80
2018-12-01T02:44:18.367Z,8.80
2018-12-01T02:46:57.796Z,8.80
2018-12-01T02:49:25.931Z,8.80
2018-12-01T02:51:54.060Z,8.80
2018-12-01T02:54:28.897Z,8.80
2018-12-01T02:56:57.027Z,8.80
2018-12-01T02:59:25.412Z,8.70
2018-12-01T03:01:53.550Z,8.70
2018-12-01T03:04:21.660Z,8.60
2018-12-01T03:06:49.791Z,8.60
2018-12-01T03:09:17.919Z,8.60
2018-12-01T03:11:46.093Z,8.70
2018-12-01T03:14:14.247Z,8.70
2018-12-01T03:16:42.435Z,8.60
2018-12-01T03:19:10.591Z,8.60
2018-12-01T03:21:38.704Z,8.60
2018-12-01T03:24:06.819Z,8.70
2018-12-01T03:26:34.942Z,8.60
2018-12-01T03:29:03.094Z,8.60
2018-12-01T03:31:31.224Z,8.70
2018-12-01T03:33:59.349Z,8.80
2018-12-01T03:36:27.482Z,8.70
2018-12-01T03:38:55.639Z,8.60
2018-12-01T03:41:23.763Z,8.60
2018-12-01T03:43:51.895Z,8.60
2018-12-01T03:46:20.083Z,8.70
2018-12-01T03:48:48.272Z,8.60
2018-12-01T03:51:16.419Z,8.60
2018-12-01T03:53:44.801Z,8.70
2018-12-01T03:56:12.891Z,8.60
2018-12-01T03:58:41.203Z,8.60
2018-12-01T04:01:09.339Z,8.70
2018-12-01T04:03:37.595Z,8.70
2018-12-01T04:06:05.712Z,8.70
2018-12-01T04:08:33.854Z,8.70
2018-12-01T04:11:02.051Z,8.70
2018-12-01T04:13:30.188Z,8.60
2018-12-01T04:15:58.347Z,8.70
2018-12-01T04:18:26.437Z,8.80
2018-12-01T04:20:54.711Z,8.70
2018-12-01T04:23:22.875Z,8.70
2018-12-01T04:25:51.084Z,8.80
2018-12-01T04:28:19.231Z,8.70
2018-12-01T04:30:47.359Z,8.60
2018-12-01T04:33:15.514Z,8.50
2018-12-01T04:35:43.635Z,8.60
2018-12-01T04:38:11.938Z,8.60
2018-12-01T04:40:40.069Z,8.60
2018-12-01T04:43:08.231Z,8.60
2018-12-01T04:45:36.385Z,8.70
2018-12-01T04:48:04.583Z,8.70
2018-12-01T04:50:32.739Z,8.70
2018-12-01T04:53:00.903Z,8.60
2018-12-01T04:55:29.127Z,8.70
2018-12-01T04:57:57.365Z,8.90
2018-12-01T05:00:25.526Z,8.90
2018-12-01T05:02:53.696Z,8.90
2018-12-01T05:05:22.187Z,8.90
2018-12-01T05:07:50.657Z,8.80
2018-12-01T05:10:20.576Z,8.90
2018-12-01T05:12:48.712Z,8.80
2018-12-01T05:15:18.413Z,8.90
2018-12-01T05:17:46.800Z,9.00
2018-12-01T05:20:17.059Z,9.00
2018-12-01T05:22:45.258Z,8.90
2018-12-01T05:25:13.403Z,8.90
2018-12-01T05:27:41.539Z,9.00
2018-12-01T05:30:09.659Z,9.00
2018-12-01T05:32:38.450Z,8.90
2018-12-01T05:42:10.876Z,9.00
2018-12-01T05:44:39.039Z,8.70
2018-12-01T05:47:07.624Z,8.90
2018-12-01T05:49:35.771Z,8.90
2018-12-01T05:52:03.957Z,9.00
2018-12-01T05:54:32.132Z,8.90
2018-12-01T05:57:00.380Z,8.80
2018-12-01T05:59:28.571Z,8.80
2018-12-01T06:01:56.753Z,8.80
2018-12-01T06:04:24.904Z,8.90
2018-12-01T06:06:53.056Z,9.00
2018-12-01T06:09:21.202Z,8.80
2018-12-01T06:11:49.344Z,8.80
2018-12-01T06:14:17.511Z,8.90
2018-12-01T06:16:45.688Z,8.90
2018-12-01T06:19:13.884Z,8.90
2018-12-01T06:21:43.073Z,8.60
2018-12-01T06:24:11.259Z,8.50
2018-12-01T06:26:39.426Z,8.80
2018-12-01T06:29:07.671Z,8.60
2018-12-01T06:31:36.052Z,8.60
2018-12-01T06:34:04.372Z,9.10
2018-12-01T06:36:33.102Z,9.00
2018-12-01T06:39:01.224Z,8.80
2018-12-01T06:41:29.376Z,8.70
2018-12-01T06:43:57.544Z,8.80
2018-12-01T06:46:25.725Z,8.80
2018-12-01T06:48:53.871Z,8.80
2018-12-01T06:51:22.048Z,8.60
2018-12-01T06:53:50.265Z,8.80
2018-12-01T06:56:18.413Z,8.90
2018-12-01T06:58:46.712Z,8.90
2018-12-01T07:01:14.870Z,8.90
2018-12-01T07:03:43.031Z,8.90
2018-12-01T07:06:11.135Z,8.90
2018-12-01T07:08:39.279Z,8.70
2018-12-01T07:11:08.008Z,8.80
2018-12-01T07:13:36.223Z,8.90
2018-12-01T07:16:04.540Z,8.80
2018-12-01T07:18:44.218Z,8.90
2018-12-01T07:21:13.820Z,8.80
2018-12-01T07:23:41.967Z,8.80
2018-12-01T07:26:10.177Z,8.80
2018-12-01T07:28:38.308Z,8.90
2018-12-01T07:31:06.528Z,8.80
2018-12-01T07:33:34.652Z,8.80
2018-12-01T07:36:02.783Z,8.80
2018-12-01T07:38:31.001Z,8.70
2018-12-01T07:40:59.141Z,8.80
2018-12-01T07:43:27.267Z,8.90
2018-12-01T07:45:55.651Z,8.90
2018-12-01T07:48:23.885Z,9.00
2018-12-01T07:50:52.738Z,8.90
2018-12-01T07:53:20.852Z,9.00
2018-12-01T07:55:48.984Z,9.10
2018-12-01T07:58:17.116Z,9.00
2018-12-01T08:00:45.281Z,9.00
2018-12-01T08:03:13.407Z,9.00
2018-12-01T08:05:41.548Z,9.10
2018-12-01T08:08:09.709Z,9.20
2018-12-01T08:10:37.899Z,9.20
2018-12-01T08:13:07.176Z,9.00
2018-12-01T08:15:35.331Z,9.10
2018-12-01T08:18:03.528Z,9.10
2018-12-01T08:20:31.665Z,9.20
2018-12-01T08:22:59.824Z,9.30
2018-12-01T08:25:28.744Z,9.20
2018-12-01T08:27:57.511Z,9.10
2018-12-01T08:30:28.741Z,9.10
2018-12-01T08:32:56.878Z,9.20
2018-12-01T08:35:26.146Z,9.20
2018-12-01T08:37:54.328Z,9.20
2018-12-01T08:40:23.926Z,9.40
2018-12-01T08:42:52.438Z,9.20
2018-12-01T08:45:20.796Z,9.10
2018-12-01T08:47:48.991Z,9.20
2018-12-01T08:50:18.380Z,9.30
2018-12-01T08:52:46.536Z,9.30
2018-12-01T08:55:16.113Z,9.30
2018-12-01T08:57:44.385Z,9.20
2018-12-01T09:00:13.999Z,9.40
2018-12-01T09:02:42.116Z,9.30
2018-12-01T09:05:11.103Z,9.40
2018-12-01T09:07:40.276Z,9.30
2018-12-01T09:10:09.591Z,9.30
2018-12-01T09:12:37.775Z,9.40
2018-12-01T09:15:10.663Z,9.50
2018-12-01T09:17:39.099Z,9.50
2018-12-01T09:20:08.960Z,9.40
2018-12-01T09:22:37.508Z,9.40
2018-12-01T09:25:07.744Z,9.70
2018-12-01T09:27:36.058Z,9.50
2018-12-01T09:30:06.940Z,9.40
2018-12-01T09:32:35.293Z,9.60
2018-12-01T09:35:03.542Z,9.40
2018-12-01T09:37:45.890Z,9.40
2018-12-01T09:40:17.356Z,9.40
2018-12-01T09:42:49.020Z,9.30
2018-12-01T09:45:24.500Z,9.50
2018-12-01T09:47:58.075Z,9.60
2018-12-01T09:50:28.461Z,9.60
2018-12-01T09:52:57.212Z,9.60
2018-12-01T09:55:26.595Z,9.50
2018-12-01T09:57:54.985Z,9.60
2018-12-01T10:00:24.556Z,9.50
2018-12-01T10:02:52.741Z,9.60
2018-12-01T10:05:21.204Z,9.80
2018-12-01T10:07:49.414Z,9.70
2018-12-01T10:10:18.602Z,9.80
2018-12-01T10:12:47.856Z,9.90
2018-12-01T10:15:20.044Z,9.90
2018-12-01T10:17:48.263Z,10.10
2018-12-01T10:20:17.760Z,9.90
2018-12-01T10:22:46.020Z,10.00
2018-12-01T10:25:17.668Z,10.00
2018-12-01T10:27:46.296Z,10.00
2018-12-01T10:30:17.256Z,9.90
2018-12-01T10:32:46.290Z,9.70
2018-12-01T10:35:15.595Z,9.80
2018-12-01T10:37:46.488Z,9.90
2018-12-01T10:40:14.697Z,10.20
2018-12-01T10:42:42.906Z,9.90
2018-12-01T10:45:13.464Z,10.00
2018-12-01T10:47:42.227Z,10.10
2018-12-01T10:50:17.056Z,9.90
2018-12-01T10:52:52.251Z,9.80
2018-12-01T10:55:23.803Z,10.10
2018-12-01T10:57:54.048Z,10.10
2018-12-01T11:00:27.691Z,10.10
2018-12-01T11:02:56.432Z,10.00
2018-12-01T11:05:25.157Z,10.00
2018-12-01T11:07:53.495Z,10.00
2018-12-01T11:10:22.111Z,10.10
2018-12-01T11:12:50.358Z,10.30
2018-12-01T11:15:19.311Z,10.30
2018-12-01T11:17:48.368Z,10.20
2018-12-01T11:20:16.507Z,9.90
2018-12-01T11:22:44.719Z,10.20
2018-12-01T11:25:14.623Z,10.20
2018-12-01T11:27:43.018Z,10.50
2018-12-01T11:30:13.495Z,10.20
2018-12-01T11:32:41.769Z,10.10
2018-12-01T11:35:09.967Z,10.20
2018-12-01T11:37:38.172Z,10.20
2018-12-01T11:40:11.499Z,10.30
2018-12-01T11:42:39.687Z,10.20
2018-12-01T11:45:09.318Z,10.40
2018-12-01T11:47:37.488Z,10.30
2018-12-01T11:50:10.351Z,10.20
2018-12-01T11:52:38.492Z,10.30
2018-12-01T11:55:08.859Z,10.40
2018-12-01T11:57:39.924Z,10.40
2018-12-01T12:00:15.567Z,10.30
2018-12-01T12:02:43.835Z,10.30
2018-12-01T12:05:12.942Z,10.30
2018-12-01T12:07:52.420Z,10.40
2018-12-01T12:10:24.162Z,10.30
2018-12-01T12:12:52.364Z,10.40
2018-12-01T12:15:21.492Z,10.50
2018-12-01T12:17:56.144Z,10.50
2018-12-01T12:20:24.351Z,10.50
2018-12-01T12:22:53.295Z,10.60
2018-12-01T12:25:21.433Z,10.70
2018-12-01T12:27:49.626Z,10.40
2018-12-01T12:30:18.607Z,10.40
2018-12-01T12:32:47.003Z,10.40
2018-12-01T12:35:16.291Z,10.30
2018-12-01T12:37:47.499Z,10.40
2018-12-01T12:40:17.648Z,10.50
2018-12-01T12:42:46.009Z,10.50
2018-12-01T12:45:18.929Z,10.50
2018-12-01T12:47:47.106Z,10.40
2018-12-01T12:50:17.107Z,10.40
2018-12-01T12:52:46.186Z,10.40
2018-12-01T12:55:18.479Z,10.30
2018-12-01T12:57:46.908Z,10.30
2018-12-01T13:00:23.553Z,10.40
2018-12-01T13:02:57.111Z,10.50
2018-12-01T13:05:26.626Z,10.40
2018-12-01T13:07:54.779Z,10.50
2018-12-01T13:10:23.916Z,10.50
2018-12-01T13:12:53.727Z,10.60
2018-12-01T13:15:22.772Z,10.60
2018-12-01T13:17:51.056Z,10.40
2018-12-01T13:20:21.192Z,10.40
2018-12-01T13:22:51.745Z,10.40
2018-12-01T13:25:19.922Z,10.50
2018-12-01T13:27:49.827Z,10.50
2018-12-01T13:30:20.991Z,10.50
2018-12-01T13:32:49.188Z,10.50
2018-12-01T13:35:17.731Z,10.60
2018-12-01T13:37:46.379Z,10.50
2018-12-01T13:40:17.616Z,10.40
2018-12-01T13:42:46.638Z,10.50
2018-12-01T13:45:16.006Z,10.40
2018-12-01T13:47:49.360Z,10.40
2018-12-01T13:50:20.705Z,10.50
2018-12-01T13:52:54.117Z,10.50
2018-12-01T13:55:23.323Z,10.50
2018-12-01T13:57:51.682Z,10.50
2018-12-01T14:00:24.204Z,10.60
2018-12-01T14:02:58.074Z,10.60
2018-12-01T14:05:32.945Z,10.70
2018-12-01T14:08:02.402Z,10.70
2018-12-01T14:10:31.486Z,10.70
2018-12-01T14:13:04.132Z,10.70
2018-12-01T14:15:32.303Z,10.60
2018-12-01T14:18:00.506Z,10.70
2018-12-01T14:20:28.783Z,10.60
2018-12-01T14:22:59.142Z,10.70
2018-12-01T14:25:28.486Z,10.60
2018-12-01T14:28:03.272Z,10.70
2018-12-01T14:30:32.113Z,10.60
2018-12-01T14:33:00.467Z,10.60
2018-12-01T14:35:33.139Z,10.70
2018-12-01T14:38:06.220Z,10.70
2018-12-01T14:40:34.736Z,10.70
2018-12-01T14:43:03.105Z,10.70
2018-12-01T14:45:31.403Z,10.70
2018-12-01T14:47:59.623Z,10.70
2018-12-01T14:50:27.939Z,10.80
2018-12-01T14:52:56.357Z,10.70
2018-12-01T14:55:24.567Z,10.70
2018-12-01T14:57:52.767Z,10.70
2018-12-01T15:00:24.887Z,10.70
2018-12-01T15:02:56.019Z,10.70
2018-12-01T15:05:26.205Z,10.70
2018-12-01T15:07:54.531Z,10.70
2018-12-01T15:10:24.450Z,10.70
2018-12-01T15:12:53.031Z,10.70
2018-12-01T15:15:24.051Z,10.70
2018-12-01T15:17:52.892Z,10.80
2018-12-01T15:20:22.886Z,10.70
2018-12-01T15:22:52.360Z,10.70
2018-12-01T15:25:21.651Z,10.70
2018-12-01T15:27:49.795Z,10.70
2018-12-01T15:30:20.109Z,10.70
2018-12-01T15:32:59.640Z,10.70
2018-12-01T15:35:28.018Z,10.70
2018-12-01T15:37:57.212Z,10.70
2018-12-01T15:40:26.328Z,10.70
2018-12-01T15:42:54.772Z,10.60
2018-12-01T15:45:23.315Z,10.60
2018-12-01T15:47:51.553Z,10.60
2018-12-01T15:50:21.157Z,10.60
2018-12-01T15:52:53.612Z,10.50
2018-12-01T15:55:23.443Z,10.50
2018-12-01T15:57:52.671Z,10.50
2018-12-01T16:00:30.445Z,10.50
2018-12-01T16:02:59.040Z,10.60
2018-12-01T16:05:27.459Z,10.60
2018-12-01T16:07:57.268Z,10.60
2018-12-01T16:10:26.050Z,10.60
2018-12-01T16:15:41.786Z,10.60
2018-12-01T16:18:10.669Z,10.50
2018-12-01T16:20:40.058Z,10.50
2018-12-01T16:23:08.283Z,10.50
2018-12-01T16:25:36.588Z,10.50
2018-12-01T16:28:07.079Z,10.50
2018-12-01T16:30:40.412Z,10.50
2018-12-01T16:33:10.257Z,10.50
2018-12-01T16:35:38.454Z,10.40
2018-12-01T16:38:08.252Z,10.40
2018-12-01T16:40:46.499Z,10.40
2018-12-01T16:43:16.302Z,10.30
2018-12-01T16:45:45.904Z,10.30
2018-12-01T16:48:14.130Z,10.30
2018-12-01T16:50:43.021Z,10.30
2018-12-01T16:53:12.966Z,10.40
2018-12-01T16:55:41.401Z,10.40
2018-12-01T16:58:09.859Z,10.30
2018-12-01T17:00:38.774Z,10.30
2018-12-01T17:03:08.229Z,10.30
2018-12-01T17:05:39.127Z,10.30
2018-12-01T17:08:07.968Z,10.30
2018-12-01T17:10:38.072Z,10.20
2018-12-01T17:13:07.662Z,10.20
2018-12-01T17:15:36.120Z,10.30
2018-12-01T17:18:04.649Z,10.30
2018-12-01T17:20:32.973Z,10.20
2018-12-01T17:23:01.099Z,10.10
2018-12-01T17:25:29.425Z,10.10
2018-12-01T17:27:58.483Z,10.20
2018-12-01T17:30:30.147Z,10.10
2018-12-01T17:33:00.167Z,10.00
2018-12-01T17:35:29.417Z,10.10
2018-12-01T17:38:01.004Z,10.00
2018-12-01T17:40:36.058Z,10.10
2018-12-01T17:43:05.966Z,10.00
2018-12-01T17:45:34.217Z,10.00
2018-12-01T17:48:03.160Z,10.00
2018-12-01T17:50:31.292Z,10.10
2018-12-01T17:52:59.467Z,10.10
2018-12-01T17:55:28.567Z,10.00
2018-12-01T17:57:56.791Z,10.10
2018-12-01T18:00:26.761Z,10.00
2018-12-01T18:02:56.474Z,10.00
2018-12-01T18:05:30.593Z,9.90
2018-12-01T18:07:59.119Z,10.00
2018-12-01T18:10:27.335Z,10.00
2018-12-01T18:12:55.568Z,10.00
2018-12-01T18:15:24.633Z,9.90
2018-12-01T18:17:53.643Z,9.90
2018-12-01T18:20:22.531Z,10.00
2018-12-01T18:22:54.229Z,9.90
2018-12-01T18:25:22.488Z,9.80
2018-12-01T18:27:52.637Z,9.90
2018-12-01T18:30:25.673Z,9.80
2018-12-01T18:32:54.759Z,9.80
2018-12-01T18:35:22.958Z,9.70
2018-12-01T18:37:51.106Z,9.80
2018-12-01T18:40:20.437Z,9.80
2018-12-01T18:42:48.743Z,9.90
2018-12-01T18:45:18.150Z,9.80
2018-12-01T18:47:46.430Z,9.70
2018-12-01T18:50:15.889Z,9.90
2018-12-01T18:52:51.079Z,9.90
2018-12-01T18:55:19.228Z,9.90
2018-12-01T18:57:47.551Z,9.90
2018-12-01T19:00:20.048Z,9.90
2018-12-01T19:02:48.345Z,10.00
2018-12-01T19:05:16.547Z,10.00
2018-12-01T19:07:45.235Z,9.90
2018-12-01T19:10:15.500Z,9.90
2018-12-01T19:12:47.055Z,9.90
2018-12-01T19:15:16.213Z,10.00
2018-12-01T19:17:45.720Z,9.90
2018-12-01T19:20:14.636Z,10.00
2018-12-01T19:22:42.881Z,10.10
2018-12-01T19:25:16.205Z,9.90
2018-12-01T19:27:44.434Z,9.80
2018-12-01T19:30:16.672Z,9.90
2018-12-01T19:32:47.618Z,9.80
2018-12-01T19:35:17.152Z,9.80
2018-12-01T19:37:46.984Z,10.00
2018-12-01T19:40:17.404Z,10.00
2018-12-01T19:42:45.533Z,9.80
2018-12-01T19:45:13.671Z,9.90
2018-12-01T19:47:43.792Z,10.00
2018-12-01T19:50:28.207Z,10.00
2018-12-01T19:52:56.351Z,10.00
2018-12-01T19:55:25.689Z,10.00
2018-12-01T19:57:53.978Z,10.00
2018-12-01T20:01:59.664Z,10.00
2018-12-01T20:04:28.143Z,10.00
2018-12-01T20:06:56.457Z,10.00
2018-12-01T20:09:24.662Z,10.00
2018-12-01T20:11:52.860Z,9.90
2018-12-01T20:14:21.142Z,9.90
2018-12-01T20:16:51.795Z,9.90
2018-12-01T20:19:19.979Z,9.90
2018-12-01T20:21:48.180Z,9.90
2018-12-01T20:24:16.337Z,9.90
2018-12-01T20:26:44.480Z,9.90
2018-12-01T20:29:12.591Z,9.90
2018-12-01T20:31:40.839Z,9.90
2018-12-01T20:34:09.417Z,9.80
2018-12-01T20:36:40.081Z,9.90
2018-12-01T20:39:13.335Z,9.70
2018-12-01T20:41:41.434Z,9.80
2018-12-01T20:44:09.560Z,9.90
2018-12-01T20:46:37.858Z,9.80
2018-12-01T20:49:07.097Z,9.90
2018-12-01T20:51:37.293Z,9.90
2018-12-01T20:54:08.261Z,9.80
2018-12-01T20:56:37.344Z,9.80
2018-12-01T20:59:05.690Z,9.90
2018-12-01T21:01:34.079Z,9.80
2018-12-01T21:04:02.323Z,9.80
2018-12-01T21:06:30.570Z,9.80
2018-12-01T21:08:58.812Z,9.80
2018-12-01T21:11:27.105Z,9.60
2018-12-01T21:13:56.204Z,9.70
2018-12-01T21:16:24.393Z,9.70
2018-12-01T21:18:52.577Z,9.70
2018-12-01T21:21:20.767Z,9.70
2018-12-01T21:23:49.172Z,9.70
2018-12-01T21:26:18.485Z,9.80
2018-12-01T21:28:46.691Z,9.70
2018-12-01T21:31:16.808Z,9.70
2018-12-01T21:33:45.087Z,9.80
2018-12-01T21:36:13.307Z,9.80
2018-12-01T21:38:41.470Z,9.90
2018-12-01T21:41:10.746Z,9.90
2018-12-01T21:43:38.880Z,9.90
2018-12-01T21:46:07.016Z,9.90
2018-12-01T21:48:35.224Z,9.90
2018-12-01T21:51:03.373Z,9.90
2018-12-01T21:53:31.491Z,9.80
2018-12-01T21:56:00.320Z,9.90
2018-12-01T21:58:28.510Z,9.90
2018-12-01T22:00:58.665Z,9.80
2018-12-01T22:03:27.644Z,9.80
2018-12-01T22:05:58.657Z,9.80
2018-12-01T22:08:27.032Z,9.80
2018-12-01T22:10:56.363Z,9.80
2018-12-01T22:13:25.027Z,9.80
2018-12-01T22:15:53.203Z,9.80
2018-12-01T22:18:25.828Z,9.90
2018-12-01T22:20:53.993Z,9.80
2018-12-01T22:23:22.139Z,9.80
2018-12-01T22:25:50.278Z,9.80
2018-12-01T22:28:18.435Z,9.80
2018-12-01T22:30:50.348Z,9.80
2018-12-01T22:33:23.996Z,9.80
2018-12-01T22:35:52.124Z,9.90
2018-12-01T22:38:20.332Z,10.00
2018-12-01T22:40:48.473Z,9.80
2018-12-01T22:43:17.184Z,9.90
2018-12-01T22:45:45.332Z,9.90
2018-12-01T22:48:15.028Z,9.90
2018-12-01T22:50:44.622Z,9.90
2018-12-01T22:53:12.912Z,9.90
2018-12-01T22:55:42.497Z,9.80
2018-12-01T22:58:16.357Z,9.70
2018-12-01T23:00:52.190Z,9.80
2018-12-01T23:03:26.498Z,9.70
2018-12-01T23:05:55.668Z,9.70
2018-12-01T23:08:25.519Z,9.70
2018-12-01T23:10:53.995Z,9.70
2018-12-01T23:13:23.011Z,9.70
2018-12-01T23:15:51.169Z,9.60
2018-12-01T23:18:20.816Z,9.70
2018-12-01T23:20:49.251Z,9.80
2018-12-01T23:23:17.371Z,9.60
2018-12-01T23:25:45.774Z,9.60
2018-12-01T23:28:13.901Z,9.70
2018-12-01T23:30:45.742Z,9.60
2018-12-01T23:33:17.150Z,9.50
2018-12-01T23:35:45.940Z,9.60
2018-12-01T23:38:14.176Z,9.60
2018-12-01T23:40:43.575Z,9.60
2018-12-01T23:43:11.809Z,9.50
2018-12-01T23:45:41.326Z,9.50
2018-12-01T23:48:09.500Z,9.50
2018-12-01T23:50:39.103Z,9.50
2018-12-01T23:53:08.760Z,9.50
2018-12-01T23:55:36.894Z,9.40
2018-12-01T23:58:05.080Z,9.50
